RYR72AV EPMO-LEBL
Flight info
| Callsign | RYR72AV |
|---|---|
| Flight time | 2h 54m |
| Altitude | 36000 |
| Route | EVINA DCT NAVUR DCT REGLI DCT LANUX/N0438F370 DCT MOBDO DCT VESAL DCT TAGIP DCT VAKON DCT VOG DCT GEKBA DCT VAMTU DCT KOLON DCT GANGU DCT PADKO DCT DIVKO DCT NILDU DCT BISBA |
| Aircraft | B738/M-SDE3FGILRWY/SB1 |
Departure
| Time | 2026-05-05 07:51 |
|---|---|
| Airport | Warsaw Modlin Airport (EPMO) |
Arrival
| Time | 2026-05-05 10:46 |
|---|---|
| Airport | Josep Tarradellas Barcelona-El Prat Airport (LEBL) |
| Time | Latitude | Longitude | Altitude | Speed | Heading |
|---|---|---|---|---|---|
| 2026-05-05 07:21 | 52.44714 | 20.64938 | 335 ft | 0 kts | 206° |
| 2026-05-05 07:43 | 52.44730 | 20.64952 | 333 ft | 4 kts | 206° |
| 2026-05-05 07:43 | 52.44754 | 20.64971 | 333 ft | 4 kts | 217° |
| 2026-05-05 07:44 | 52.44767 | 20.65002 | 333 ft | 3 kts | 261° |
| 2026-05-05 07:44 | 52.44770 | 20.65037 | 335 ft | 0 kts | 261° |
| 2026-05-05 07:46 | 52.44769 | 20.65024 | 336 ft | 3 kts | 261° |
| 2026-05-05 07:47 | 52.44763 | 20.64959 | 332 ft | 8 kts | 261° |
| 2026-05-05 07:47 | 52.44752 | 20.64839 | 336 ft | 12 kts | 261° |
| 2026-05-05 07:47 | 52.44736 | 20.64675 | 333 ft | 16 kts | 261° |
| 2026-05-05 07:47 | 52.44720 | 20.64505 | 333 ft | 15 kts | 261° |
| 2026-05-05 07:48 | 52.44704 | 20.64341 | 333 ft | 14 kts | 261° |
| 2026-05-05 07:48 | 52.44689 | 20.64183 | 335 ft | 14 kts | 261° |
| 2026-05-05 07:48 | 52.44675 | 20.64030 | 336 ft | 14 kts | 261° |
| 2026-05-05 07:48 | 52.44659 | 20.63860 | 335 ft | 16 kts | 261° |
| 2026-05-05 07:49 | 52.44642 | 20.63678 | 337 ft | 16 kts | 261° |
| 2026-05-05 07:49 | 52.44631 | 20.63495 | 337 ft | 16 kts | 282° |
| 2026-05-05 07:49 | 52.44725 | 20.63433 | 334 ft | 15 kts | 352° |
| 2026-05-05 07:49 | 52.44826 | 20.63408 | 334 ft | 14 kts | 351° |
| 2026-05-05 07:50 | 52.44921 | 20.63392 | 337 ft | 13 kts | 360° |
| 2026-05-05 07:50 | 52.44957 | 20.63443 | 333 ft | 0 kts | 78° |
| 2026-05-05 07:50 | 52.44958 | 20.63455 | 337 ft | 4 kts | 78° |
| 2026-05-05 07:50 | 52.44991 | 20.63783 | 336 ft | 62 kts | 82° |
| 2026-05-05 07:51 | 52.45089 | 20.64829 | 336 ft | 121 kts | 81° |
| 2026-05-05 07:51 | 52.45245 | 20.66463 | 372 ft | 165 kts | 81° |
| 2026-05-05 07:51 | 52.45412 | 20.68363 | 919 ft | 169 kts | 81° |
| 2026-05-05 07:51 | 52.45628 | 20.70297 | 1515 ft | 175 kts | 79° |
| 2026-05-05 07:52 | 52.45930 | 20.72247 | 2222 ft | 177 kts | 71° |
| 2026-05-05 07:52 | 52.46488 | 20.74089 | 2907 ft | 184 kts | 56° |
| 2026-05-05 07:52 | 52.47345 | 20.75672 | 3591 ft | 188 kts | 40° |
| 2026-05-05 07:52 | 52.48471 | 20.76812 | 4193 ft | 197 kts | 25° |
| 2026-05-05 07:53 | 52.49822 | 20.77565 | 4708 ft | 210 kts | 8° |
| 2026-05-05 07:53 | 52.51268 | 20.77790 | 5393 ft | 206 kts | 0° |
| 2026-05-05 07:53 | 52.52748 | 20.77838 | 5835 ft | 218 kts | 359° |
| 2026-05-05 07:53 | 52.54264 | 20.77869 | 6424 ft | 215 kts | 357° |
| 2026-05-05 07:54 | 52.55807 | 20.77840 | 6771 ft | 228 kts | 356° |
| 2026-05-05 07:54 | 52.57421 | 20.77766 | 7104 ft | 240 kts | 356° |
| 2026-05-05 07:54 | 52.59130 | 20.77699 | 7467 ft | 253 kts | 358° |
| 2026-05-05 07:54 | 52.60948 | 20.78139 | 7831 ft | 273 kts | 16° |
| 2026-05-05 07:55 | 52.62634 | 20.79675 | 8390 ft | 283 kts | 43° |
| 2026-05-05 07:55 | 52.63717 | 20.82470 | 8695 ft | 302 kts | 75° |
| 2026-05-05 07:55 | 52.64065 | 20.85847 | 9362 ft | 304 kts | 85° |
| 2026-05-05 07:55 | 52.64289 | 20.89342 | 10006 ft | 310 kts | 92° |
| 2026-05-05 07:56 | 52.63839 | 20.92831 | 10266 ft | 319 kts | 122° |
| 2026-05-05 07:56 | 52.62426 | 20.95711 | 10451 ft | 331 kts | 143° |
| 2026-05-05 07:56 | 52.60590 | 20.98167 | 10707 ft | 347 kts | 145° |
| 2026-05-05 07:56 | 52.58676 | 21.00669 | 11253 ft | 354 kts | 145° |
| 2026-05-05 07:57 | 52.56742 | 21.03204 | 11947 ft | 356 kts | 145° |
| 2026-05-05 07:57 | 52.54820 | 21.05744 | 12636 ft | 359 kts | 145° |
| 2026-05-05 07:57 | 52.52859 | 21.08353 | 13328 ft | 364 kts | 145° |
| 2026-05-05 07:57 | 52.50882 | 21.10993 | 14000 ft | 368 kts | 145° |
| 2026-05-05 07:58 | 52.48884 | 21.13665 | 14631 ft | 372 kts | 145° |
| 2026-05-05 07:58 | 52.46887 | 21.16334 | 15255 ft | 376 kts | 144° |
| 2026-05-05 07:58 | 52.44840 | 21.19064 | 15879 ft | 381 kts | 144° |
| 2026-05-05 07:58 | 52.42667 | 21.21568 | 16477 ft | 380 kts | 159° |
| 2026-05-05 07:59 | 52.40135 | 21.22648 | 17091 ft | 375 kts | 180° |
| 2026-05-05 07:59 | 52.37589 | 21.22225 | 17720 ft | 372 kts | 199° |
| 2026-05-05 07:59 | 52.35236 | 21.20503 | 18291 ft | 372 kts | 215° |
| 2026-05-05 07:59 | 52.33303 | 21.17700 | 18813 ft | 372 kts | 231° |
| 2026-05-05 08:00 | 52.31692 | 21.14375 | 19350 ft | 375 kts | 233° |
| 2026-05-05 08:00 | 52.30097 | 21.10972 | 19866 ft | 379 kts | 233° |
| 2026-05-05 08:00 | 52.28469 | 21.07557 | 20412 ft | 382 kts | 233° |
| 2026-05-05 08:00 | 52.26816 | 21.04147 | 20960 ft | 385 kts | 232° |
| 2026-05-05 08:01 | 52.25068 | 21.00807 | 21475 ft | 389 kts | 226° |
| 2026-05-05 08:01 | 52.23117 | 20.97795 | 21980 ft | 393 kts | 223° |
| 2026-05-05 08:01 | 52.21047 | 20.94855 | 22486 ft | 396 kts | 222° |
| 2026-05-05 08:01 | 52.18937 | 20.91908 | 22994 ft | 399 kts | 222° |
| 2026-05-05 08:02 | 52.16819 | 20.88925 | 23480 ft | 402 kts | 222° |
| 2026-05-05 08:02 | 52.14726 | 20.85938 | 23881 ft | 405 kts | 223° |
| 2026-05-05 08:02 | 52.12606 | 20.82881 | 24301 ft | 407 kts | 223° |
| 2026-05-05 08:02 | 52.10464 | 20.79775 | 24671 ft | 411 kts | 223° |
| 2026-05-05 08:03 | 52.08317 | 20.76657 | 25087 ft | 413 kts | 223° |
| 2026-05-05 08:03 | 52.06187 | 20.73564 | 25514 ft | 414 kts | 223° |
| 2026-05-05 08:03 | 52.04027 | 20.70430 | 25917 ft | 416 kts | 223° |
| 2026-05-05 08:03 | 52.01882 | 20.67323 | 26286 ft | 419 kts | 223° |
| 2026-05-05 08:04 | 51.99688 | 20.64149 | 26664 ft | 421 kts | 223° |
| 2026-05-05 08:04 | 51.97512 | 20.61009 | 27034 ft | 423 kts | 223° |
| 2026-05-05 08:04 | 51.95259 | 20.57879 | 27398 ft | 426 kts | 217° |
| 2026-05-05 08:04 | 51.92638 | 20.55676 | 27713 ft | 432 kts | 201° |
| 2026-05-05 08:05 | 51.89777 | 20.54084 | 28115 ft | 433 kts | 201° |
| 2026-05-05 08:05 | 51.86894 | 20.52478 | 28445 ft | 436 kts | 201° |
| 2026-05-05 08:05 | 51.84054 | 20.50870 | 28748 ft | 438 kts | 202° |
| 2026-05-05 08:05 | 51.81156 | 20.49204 | 29072 ft | 440 kts | 202° |
| 2026-05-05 08:06 | 51.78288 | 20.47541 | 29514 ft | 439 kts | 202° |
| 2026-05-05 08:06 | 51.75418 | 20.45870 | 30053 ft | 436 kts | 202° |
| 2026-05-05 08:06 | 51.72591 | 20.44225 | 30496 ft | 433 kts | 202° |
| 2026-05-05 08:06 | 51.69739 | 20.42567 | 30839 ft | 433 kts | 202° |
| 2026-05-05 08:07 | 51.66887 | 20.40914 | 31180 ft | 433 kts | 202° |
| 2026-05-05 08:07 | 51.64025 | 20.39570 | 31520 ft | 436 kts | 192° |
| 2026-05-05 08:07 | 51.60995 | 20.39039 | 31929 ft | 435 kts | 187° |
| 2026-05-05 08:07 | 51.57970 | 20.38692 | 32321 ft | 434 kts | 187° |
| 2026-05-05 08:08 | 51.54982 | 20.38351 | 32647 ft | 434 kts | 187° |
| 2026-05-05 08:08 | 51.51972 | 20.37965 | 32971 ft | 433 kts | 188° |
| 2026-05-05 08:08 | 51.48958 | 20.37535 | 33343 ft | 431 kts | 188° |
| 2026-05-05 08:08 | 51.45997 | 20.37089 | 33701 ft | 430 kts | 188° |
| 2026-05-05 08:09 | 51.43010 | 20.36636 | 34049 ft | 429 kts | 188° |
| 2026-05-05 08:09 | 51.40085 | 20.36059 | 34311 ft | 426 kts | 197° |
| 2026-05-05 08:09 | 51.37341 | 20.34319 | 34502 ft | 420 kts | 214° |
| 2026-05-05 08:09 | 51.34992 | 20.31661 | 34798 ft | 417 kts | 219° |
| 2026-05-05 08:10 | 51.32684 | 20.28829 | 35089 ft | 416 kts | 219° |
| 2026-05-05 08:10 | 51.30387 | 20.25982 | 35327 ft | 416 kts | 219° |
| 2026-05-05 08:10 | 51.28121 | 20.23193 | 35568 ft | 415 kts | 219° |
| 2026-05-05 08:10 | 51.25821 | 20.20388 | 35828 ft | 415 kts | 219° |
| 2026-05-05 08:11 | 51.21197 | 20.14812 | 35911 ft | 420 kts | 219° |
| 2026-05-05 08:11 | 51.16500 | 20.09193 | 35909 ft | 418 kts | 218° |
| 2026-05-05 08:12 | 51.11885 | 20.03687 | 35900 ft | 413 kts | 218° |
| 2026-05-05 08:12 | 51.07400 | 19.98344 | 35904 ft | 412 kts | 218° |
| 2026-05-05 08:13 | 51.02813 | 19.92890 | 35897 ft | 411 kts | 219° |
| 2026-05-05 08:13 | 50.98978 | 19.86619 | 35914 ft | 408 kts | 233° |
| 2026-05-05 08:14 | 50.95509 | 19.79528 | 35902 ft | 409 kts | 233° |
| 2026-05-05 08:14 | 50.92152 | 19.72718 | 35901 ft | 410 kts | 233° |
| 2026-05-05 08:15 | 50.88603 | 19.65582 | 35904 ft | 411 kts | 232° |
| 2026-05-05 08:15 | 50.85065 | 19.58503 | 35893 ft | 413 kts | 232° |
| 2026-05-05 08:16 | 50.81484 | 19.51365 | 35900 ft | 413 kts | 232° |
| 2026-05-05 08:16 | 50.77918 | 19.44274 | 35894 ft | 414 kts | 232° |
| 2026-05-05 08:17 | 50.74323 | 19.37146 | 35897 ft | 415 kts | 232° |
| 2026-05-05 08:17 | 50.70709 | 19.30001 | 35897 ft | 415 kts | 232° |
| 2026-05-05 08:18 | 50.67101 | 19.22885 | 35888 ft | 415 kts | 232° |
| 2026-05-05 08:18 | 50.63512 | 19.15828 | 35897 ft | 414 kts | 232° |
| 2026-05-05 08:19 | 50.59899 | 19.08740 | 35909 ft | 414 kts | 232° |
| 2026-05-05 08:19 | 50.56283 | 19.01668 | 35912 ft | 414 kts | 232° |
| 2026-05-05 08:20 | 50.52758 | 18.94791 | 35911 ft | 413 kts | 232° |
| 2026-05-05 08:20 | 50.49166 | 18.87803 | 35906 ft | 413 kts | 232° |
| 2026-05-05 08:21 | 50.45541 | 18.80768 | 35912 ft | 413 kts | 232° |
| 2026-05-05 08:21 | 50.41922 | 18.73766 | 35889 ft | 413 kts | 232° |
| 2026-05-05 08:22 | 50.38321 | 18.66816 | 35891 ft | 412 kts | 232° |
| 2026-05-05 08:22 | 50.34693 | 18.59833 | 35888 ft | 412 kts | 232° |
| 2026-05-05 08:23 | 50.31070 | 18.52879 | 35872 ft | 412 kts | 232° |
| 2026-05-05 08:23 | 50.27460 | 18.45967 | 35885 ft | 412 kts | 232° |
| 2026-05-05 08:24 | 50.23817 | 18.39010 | 35884 ft | 412 kts | 231° |
| 2026-05-05 08:24 | 50.20177 | 18.32077 | 35889 ft | 412 kts | 231° |
| 2026-05-05 08:25 | 50.16553 | 18.25193 | 35884 ft | 412 kts | 231° |
| 2026-05-05 08:25 | 50.12900 | 18.18273 | 35879 ft | 413 kts | 231° |
| 2026-05-05 08:26 | 50.09424 | 18.11703 | 35886 ft | 413 kts | 231° |
| 2026-05-05 08:26 | 50.05783 | 18.04836 | 35885 ft | 413 kts | 231° |
| 2026-05-05 08:27 | 50.02225 | 17.98028 | 35879 ft | 413 kts | 234° |
| 2026-05-05 08:27 | 49.98869 | 17.90799 | 35885 ft | 413 kts | 235° |
| 2026-05-05 08:28 | 49.95567 | 17.83541 | 35884 ft | 414 kts | 235° |
| 2026-05-05 08:28 | 49.92790 | 17.77477 | 35878 ft | 414 kts | 235° |
| 2026-05-05 08:29 | 49.89436 | 17.70212 | 35884 ft | 413 kts | 235° |
| 2026-05-05 08:30 | 49.84401 | 17.59375 | 35873 ft | 413 kts | 235° |
| 2026-05-05 08:30 | 49.81031 | 17.52150 | 35888 ft | 413 kts | 235° |
| 2026-05-05 08:31 | 49.77651 | 17.44922 | 35893 ft | 413 kts | 235° |
| 2026-05-05 08:31 | 49.74287 | 17.37747 | 35897 ft | 414 kts | 234° |
| 2026-05-05 08:32 | 49.72242 | 17.33395 | 35887 ft | 414 kts | 234° |
| 2026-05-05 08:32 | 49.68883 | 17.26261 | 35885 ft | 414 kts | 234° |
| 2026-05-05 08:33 | 49.65509 | 17.19114 | 35882 ft | 413 kts | 234° |
| 2026-05-05 08:33 | 49.62120 | 17.11956 | 35886 ft | 412 kts | 234° |
| 2026-05-05 08:34 | 49.58726 | 17.04806 | 35876 ft | 412 kts | 234° |
| 2026-05-05 08:34 | 49.55431 | 16.97884 | 35886 ft | 411 kts | 234° |
| 2026-05-05 08:35 | 49.52040 | 16.90779 | 35883 ft | 411 kts | 234° |
| 2026-05-05 08:35 | 49.48642 | 16.83678 | 35882 ft | 411 kts | 234° |
| 2026-05-05 08:36 | 49.46477 | 16.79163 | 35887 ft | 411 kts | 234° |
| 2026-05-05 08:36 | 49.43068 | 16.72070 | 35891 ft | 412 kts | 234° |
| 2026-05-05 08:37 | 49.39649 | 16.64973 | 35884 ft | 413 kts | 234° |
| 2026-05-05 08:37 | 49.36236 | 16.57909 | 35882 ft | 414 kts | 234° |
| 2026-05-05 08:38 | 49.32791 | 16.50799 | 35886 ft | 415 kts | 234° |
| 2026-05-05 08:38 | 49.29332 | 16.43677 | 35882 ft | 416 kts | 234° |
| 2026-05-05 08:39 | 49.25888 | 16.36606 | 35878 ft | 417 kts | 234° |
| 2026-05-05 08:39 | 49.22415 | 16.29493 | 35882 ft | 417 kts | 234° |
| 2026-05-05 08:40 | 49.18923 | 16.22362 | 35890 ft | 418 kts | 233° |
| 2026-05-05 08:40 | 49.15451 | 16.15288 | 35883 ft | 418 kts | 233° |
| 2026-05-05 08:41 | 49.11944 | 16.08164 | 35889 ft | 418 kts | 233° |
| 2026-05-05 08:41 | 49.08434 | 16.01052 | 35878 ft | 419 kts | 233° |
| 2026-05-05 08:42 | 49.05016 | 15.94143 | 35878 ft | 418 kts | 233° |
| 2026-05-05 08:42 | 49.01506 | 15.87067 | 35880 ft | 418 kts | 233° |
| 2026-05-05 08:43 | 48.98002 | 15.80023 | 35870 ft | 417 kts | 233° |
| 2026-05-05 08:43 | 48.94514 | 15.73025 | 35875 ft | 417 kts | 233° |
| 2026-05-05 08:44 | 48.90991 | 15.65975 | 35933 ft | 421 kts | 233° |
| 2026-05-05 08:44 | 48.89203 | 15.62407 | 36108 ft | 423 kts | 233° |
| 2026-05-05 08:44 | 48.87336 | 15.58962 | 36382 ft | 421 kts | 229° |
| 2026-05-05 08:44 | 48.85376 | 15.55657 | 36715 ft | 419 kts | 228° |
| 2026-05-05 08:45 | 48.83416 | 15.52457 | 36874 ft | 420 kts | 228° |
| 2026-05-05 08:45 | 48.79408 | 15.45961 | 36851 ft | 421 kts | 228° |
| 2026-05-05 08:46 | 48.75437 | 15.39484 | 36849 ft | 416 kts | 228° |
| 2026-05-05 08:46 | 48.71522 | 15.33062 | 36843 ft | 412 kts | 228° |
| 2026-05-05 08:47 | 48.67728 | 15.26835 | 36848 ft | 410 kts | 228° |
| 2026-05-05 08:47 | 48.63822 | 15.20434 | 36857 ft | 417 kts | 228° |
| 2026-05-05 08:48 | 48.59872 | 15.13978 | 36843 ft | 422 kts | 228° |
| 2026-05-05 08:48 | 48.55861 | 15.07441 | 36846 ft | 424 kts | 228° |
| 2026-05-05 08:49 | 48.51838 | 15.00900 | 36827 ft | 424 kts | 228° |
| 2026-05-05 08:49 | 48.47934 | 14.94570 | 36841 ft | 423 kts | 228° |
| 2026-05-05 08:50 | 48.43915 | 14.88069 | 36842 ft | 422 kts | 228° |
| 2026-05-05 08:50 | 48.39912 | 14.81609 | 36833 ft | 420 kts | 228° |
| 2026-05-05 08:51 | 48.35945 | 14.75223 | 36857 ft | 418 kts | 228° |
| 2026-05-05 08:51 | 48.31972 | 14.68844 | 36831 ft | 416 kts | 228° |
| 2026-05-05 08:52 | 48.28043 | 14.62549 | 36834 ft | 413 kts | 228° |
| 2026-05-05 08:52 | 48.24117 | 14.56275 | 36833 ft | 411 kts | 227° |
| 2026-05-05 08:53 | 48.20200 | 14.50031 | 36851 ft | 409 kts | 227° |
| 2026-05-05 08:53 | 48.16317 | 14.43855 | 36852 ft | 408 kts | 227° |
| 2026-05-05 08:54 | 48.12412 | 14.37658 | 36854 ft | 408 kts | 227° |
| 2026-05-05 08:54 | 48.08501 | 14.31468 | 36853 ft | 410 kts | 227° |
| 2026-05-05 08:55 | 48.04594 | 14.25298 | 36852 ft | 412 kts | 227° |
| 2026-05-05 08:55 | 48.00640 | 14.19069 | 36849 ft | 414 kts | 227° |
| 2026-05-05 08:56 | 47.96677 | 14.12840 | 36855 ft | 415 kts | 227° |
| 2026-05-05 08:56 | 47.92705 | 14.06612 | 36842 ft | 417 kts | 227° |
| 2026-05-05 08:57 | 47.88697 | 14.00340 | 36831 ft | 418 kts | 227° |
| 2026-05-05 08:57 | 47.84778 | 13.94227 | 36832 ft | 418 kts | 227° |
| 2026-05-05 08:58 | 47.80761 | 13.87974 | 36830 ft | 417 kts | 227° |
| 2026-05-05 08:58 | 47.76752 | 13.81748 | 36852 ft | 416 kts | 227° |
| 2026-05-05 08:59 | 47.72744 | 13.75538 | 36835 ft | 415 kts | 226° |
| 2026-05-05 08:59 | 47.68769 | 13.69394 | 36847 ft | 414 kts | 226° |
| 2026-05-05 09:00 | 47.64772 | 13.63230 | 36857 ft | 413 kts | 226° |
| 2026-05-05 09:00 | 47.60779 | 13.57086 | 36833 ft | 412 kts | 226° |
| 2026-05-05 09:01 | 47.56813 | 13.50999 | 36858 ft | 412 kts | 226° |
| 2026-05-05 09:01 | 47.52832 | 13.44902 | 36863 ft | 411 kts | 226° |
| 2026-05-05 09:02 | 47.48874 | 13.38856 | 36871 ft | 411 kts | 226° |
| 2026-05-05 09:02 | 47.44883 | 13.32772 | 36871 ft | 411 kts | 226° |
| 2026-05-05 09:03 | 47.40919 | 13.26744 | 36870 ft | 411 kts | 226° |
| 2026-05-05 09:03 | 47.36921 | 13.20678 | 36886 ft | 411 kts | 226° |
| 2026-05-05 09:04 | 47.33173 | 13.15005 | 36886 ft | 411 kts | 226° |
| 2026-05-05 09:04 | 47.29164 | 13.08949 | 36891 ft | 411 kts | 226° |
| 2026-05-05 09:05 | 47.25180 | 13.02958 | 36903 ft | 408 kts | 226° |
| 2026-05-05 09:05 | 47.21285 | 12.97088 | 36899 ft | 409 kts | 226° |
| 2026-05-05 09:06 | 47.17310 | 12.91117 | 36899 ft | 409 kts | 226° |
| 2026-05-05 09:06 | 47.13333 | 12.85165 | 36936 ft | 410 kts | 226° |
| 2026-05-05 09:07 | 47.09339 | 12.79204 | 36926 ft | 410 kts | 226° |
| 2026-05-05 09:07 | 47.05337 | 12.73245 | 36918 ft | 411 kts | 226° |
| 2026-05-05 09:08 | 47.01327 | 12.67286 | 36950 ft | 411 kts | 226° |
| 2026-05-05 09:08 | 46.97295 | 12.61304 | 36939 ft | 412 kts | 225° |
| 2026-05-05 09:09 | 46.93262 | 12.55336 | 36966 ft | 413 kts | 226° |
| 2026-05-05 09:09 | 46.89203 | 12.49342 | 36990 ft | 413 kts | 225° |
| 2026-05-05 09:10 | 46.85422 | 12.43772 | 37030 ft | 412 kts | 225° |
| 2026-05-05 09:10 | 46.81387 | 12.37842 | 37041 ft | 413 kts | 225° |
| 2026-05-05 09:11 | 46.77341 | 12.31907 | 37043 ft | 413 kts | 225° |
| 2026-05-05 09:11 | 46.73299 | 12.25993 | 37057 ft | 412 kts | 225° |
| 2026-05-05 09:12 | 46.69235 | 12.20058 | 37055 ft | 411 kts | 225° |
| 2026-05-05 09:12 | 46.65197 | 12.14175 | 36955 ft | 411 kts | 225° |
| 2026-05-05 09:13 | 46.61177 | 12.08331 | 36965 ft | 409 kts | 225° |
| 2026-05-05 09:13 | 46.57160 | 12.02504 | 36988 ft | 407 kts | 225° |
| 2026-05-05 09:14 | 46.53210 | 11.96788 | 36975 ft | 407 kts | 225° |
| 2026-05-05 09:14 | 46.49203 | 11.90999 | 36980 ft | 407 kts | 225° |
| 2026-05-05 09:15 | 46.45177 | 11.85196 | 36987 ft | 406 kts | 225° |
| 2026-05-05 09:15 | 46.41559 | 11.78936 | 36981 ft | 407 kts | 238° |
| 2026-05-05 09:16 | 46.38986 | 11.71653 | 36983 ft | 407 kts | 241° |
| 2026-05-05 09:16 | 46.36106 | 11.64622 | 36991 ft | 408 kts | 236° |
| 2026-05-05 09:17 | 46.33517 | 11.58868 | 36991 ft | 409 kts | 236° |
| 2026-05-05 09:17 | 46.30419 | 11.51964 | 36989 ft | 411 kts | 236° |
| 2026-05-05 09:18 | 46.27314 | 11.44961 | 36988 ft | 412 kts | 237° |
| 2026-05-05 09:18 | 46.24234 | 11.37985 | 36997 ft | 412 kts | 237° |
| 2026-05-05 09:19 | 46.21162 | 11.31035 | 37004 ft | 412 kts | 236° |
| 2026-05-05 09:19 | 46.18077 | 11.24072 | 37065 ft | 413 kts | 237° |
| 2026-05-05 09:20 | 46.14985 | 11.17114 | 37070 ft | 414 kts | 236° |
| 2026-05-05 09:20 | 46.11864 | 11.10106 | 37061 ft | 415 kts | 236° |
| 2026-05-05 09:21 | 46.08745 | 11.03121 | 37042 ft | 415 kts | 236° |
| 2026-05-05 09:21 | 46.05689 | 10.96295 | 37037 ft | 413 kts | 236° |
| 2026-05-05 09:22 | 46.02591 | 10.89390 | 37027 ft | 410 kts | 236° |
| 2026-05-05 09:22 | 45.99514 | 10.82548 | 37022 ft | 408 kts | 236° |
| 2026-05-05 09:23 | 45.96425 | 10.75694 | 37023 ft | 406 kts | 236° |
| 2026-05-05 09:23 | 45.93328 | 10.68956 | 37036 ft | 406 kts | 232° |
| 2026-05-05 09:24 | 45.89537 | 10.62965 | 37025 ft | 405 kts | 226° |
| 2026-05-05 09:24 | 45.85655 | 10.57123 | 37020 ft | 405 kts | 227° |
| 2026-05-05 09:25 | 45.81766 | 10.51235 | 37008 ft | 405 kts | 227° |
| 2026-05-05 09:25 | 45.77913 | 10.45383 | 37016 ft | 404 kts | 227° |
| 2026-05-05 09:26 | 45.74053 | 10.39524 | 37006 ft | 405 kts | 227° |
| 2026-05-05 09:26 | 45.70187 | 10.33669 | 37001 ft | 405 kts | 227° |
| 2026-05-05 09:27 | 45.66317 | 10.27818 | 36986 ft | 407 kts | 227° |
| 2026-05-05 09:27 | 45.62421 | 10.21944 | 36976 ft | 408 kts | 227° |
| 2026-05-05 09:28 | 45.58773 | 10.16454 | 36965 ft | 407 kts | 227° |
| 2026-05-05 09:28 | 45.54902 | 10.10638 | 36962 ft | 406 kts | 227° |
| 2026-05-05 09:29 | 45.51027 | 10.04829 | 36960 ft | 405 kts | 227° |
| 2026-05-05 09:29 | 45.47296 | 9.99092 | 36964 ft | 402 kts | 233° |
| 2026-05-05 09:30 | 45.44077 | 9.92561 | 36976 ft | 400 kts | 235° |
| 2026-05-05 09:30 | 45.40924 | 9.86047 | 36986 ft | 401 kts | 235° |
| 2026-05-05 09:31 | 45.37754 | 9.79561 | 37025 ft | 399 kts | 235° |
| 2026-05-05 09:31 | 45.34578 | 9.73111 | 37029 ft | 398 kts | 235° |
| 2026-05-05 09:32 | 45.31391 | 9.66662 | 37044 ft | 397 kts | 235° |
| 2026-05-05 09:32 | 45.28211 | 9.60245 | 37031 ft | 399 kts | 235° |
| 2026-05-05 09:33 | 45.25014 | 9.53807 | 37019 ft | 400 kts | 234° |
| 2026-05-05 09:33 | 45.21802 | 9.47351 | 36993 ft | 401 kts | 234° |
| 2026-05-05 09:34 | 45.18569 | 9.40871 | 36974 ft | 400 kts | 235° |
| 2026-05-05 09:34 | 45.15360 | 9.34452 | 36990 ft | 399 kts | 235° |
| 2026-05-05 09:35 | 45.12164 | 9.28072 | 36982 ft | 397 kts | 235° |
| 2026-05-05 09:35 | 45.07362 | 9.18512 | 36995 ft | 396 kts | 234° |
| 2026-05-05 09:36 | 45.04173 | 9.12182 | 36993 ft | 395 kts | 234° |
| 2026-05-05 09:36 | 45.00992 | 9.05880 | 36991 ft | 394 kts | 235° |
| 2026-05-05 09:37 | 44.97883 | 8.99733 | 36979 ft | 394 kts | 234° |
| 2026-05-05 09:37 | 44.94612 | 8.93548 | 36994 ft | 394 kts | 232° |
| 2026-05-05 09:38 | 44.91148 | 8.87544 | 36993 ft | 394 kts | 231° |
| 2026-05-05 09:38 | 44.87676 | 8.81574 | 36987 ft | 394 kts | 231° |
| 2026-05-05 09:39 | 44.84218 | 8.75595 | 37013 ft | 394 kts | 231° |
| 2026-05-05 09:39 | 44.80750 | 8.69587 | 36984 ft | 394 kts | 231° |
| 2026-05-05 09:40 | 44.77301 | 8.63616 | 36995 ft | 394 kts | 231° |
| 2026-05-05 09:40 | 44.73847 | 8.57648 | 36990 ft | 394 kts | 231° |
| 2026-05-05 09:41 | 44.70396 | 8.51697 | 36980 ft | 393 kts | 231° |
| 2026-05-05 09:41 | 44.66944 | 8.45758 | 36993 ft | 393 kts | 231° |
| 2026-05-05 09:42 | 44.63467 | 8.39787 | 36972 ft | 392 kts | 231° |
| 2026-05-05 09:42 | 44.60021 | 8.33883 | 36995 ft | 392 kts | 231° |
| 2026-05-05 09:43 | 44.56792 | 8.28361 | 36980 ft | 392 kts | 231° |
| 2026-05-05 09:43 | 44.53341 | 8.22472 | 37000 ft | 390 kts | 231° |
| 2026-05-05 09:44 | 44.49905 | 8.16618 | 36992 ft | 390 kts | 231° |
| 2026-05-05 09:44 | 44.46459 | 8.10761 | 36997 ft | 390 kts | 231° |
| 2026-05-05 09:45 | 44.42993 | 8.04875 | 36997 ft | 390 kts | 231° |
| 2026-05-05 09:45 | 44.39607 | 7.99148 | 36998 ft | 389 kts | 231° |
| 2026-05-05 09:46 | 44.36169 | 7.93341 | 37009 ft | 389 kts | 231° |
| 2026-05-05 09:46 | 44.32727 | 7.87535 | 36977 ft | 389 kts | 231° |
| 2026-05-05 09:47 | 44.29254 | 7.81688 | 36970 ft | 389 kts | 230° |
| 2026-05-05 09:47 | 44.25649 | 7.76075 | 36980 ft | 390 kts | 223° |
| 2026-05-05 09:48 | 44.21577 | 7.71107 | 36978 ft | 391 kts | 222° |
| 2026-05-05 09:48 | 44.17488 | 7.66088 | 36932 ft | 394 kts | 223° |
| 2026-05-05 09:49 | 44.13488 | 7.60824 | 36997 ft | 396 kts | 229° |
| 2026-05-05 09:49 | 44.09866 | 7.54996 | 36931 ft | 401 kts | 229° |
| 2026-05-05 09:50 | 44.06276 | 7.49215 | 36969 ft | 392 kts | 229° |
| 2026-05-05 09:50 | 44.02718 | 7.43518 | 36979 ft | 390 kts | 230° |
| 2026-05-05 09:51 | 43.99927 | 7.37073 | 36957 ft | 392 kts | 243° |
| 2026-05-05 09:51 | 43.97602 | 7.30266 | 36961 ft | 392 kts | 243° |
| 2026-05-05 09:52 | 43.95245 | 7.23444 | 36950 ft | 390 kts | 243° |
| 2026-05-05 09:52 | 43.92887 | 7.16679 | 36981 ft | 391 kts | 242° |
| 2026-05-05 09:53 | 43.90505 | 7.09874 | 36939 ft | 390 kts | 243° |
| 2026-05-05 09:53 | 43.88139 | 7.03130 | 36985 ft | 391 kts | 242° |
| 2026-05-05 09:54 | 43.85791 | 6.96460 | 36970 ft | 391 kts | 242° |
| 2026-05-05 09:54 | 43.83397 | 6.89676 | 36970 ft | 391 kts | 242° |
| 2026-05-05 09:55 | 43.81017 | 6.82946 | 36990 ft | 391 kts | 242° |
| 2026-05-05 09:55 | 43.78604 | 6.76140 | 36956 ft | 393 kts | 242° |
| 2026-05-05 09:56 | 43.76205 | 6.69390 | 36957 ft | 393 kts | 242° |
| 2026-05-05 09:56 | 43.73791 | 6.62611 | 36974 ft | 392 kts | 242° |
| 2026-05-05 09:57 | 43.71371 | 6.55835 | 36959 ft | 392 kts | 242° |
| 2026-05-05 09:57 | 43.68961 | 6.49102 | 36960 ft | 392 kts | 242° |
| 2026-05-05 09:58 | 43.66532 | 6.42335 | 36963 ft | 392 kts | 242° |
| 2026-05-05 09:58 | 43.64117 | 6.35623 | 36955 ft | 391 kts | 242° |
| 2026-05-05 09:59 | 43.61701 | 6.28923 | 36949 ft | 390 kts | 242° |
| 2026-05-05 09:59 | 43.59283 | 6.22234 | 36958 ft | 390 kts | 242° |
| 2026-05-05 10:00 | 43.56848 | 6.15515 | 36960 ft | 390 kts | 242° |
| 2026-05-05 10:00 | 43.54421 | 6.08834 | 36968 ft | 391 kts | 242° |
| 2026-05-05 10:01 | 43.51982 | 6.02134 | 36962 ft | 391 kts | 242° |
| 2026-05-05 10:01 | 43.49601 | 5.95609 | 36956 ft | 389 kts | 242° |
| 2026-05-05 10:02 | 43.47161 | 5.88942 | 36930 ft | 388 kts | 242° |
| 2026-05-05 10:02 | 43.44747 | 5.82358 | 36944 ft | 387 kts | 242° |
| 2026-05-05 10:03 | 43.42314 | 5.75741 | 36951 ft | 386 kts | 241° |
| 2026-05-05 10:03 | 43.39878 | 5.69129 | 36971 ft | 387 kts | 241° |
| 2026-05-05 10:04 | 43.37441 | 5.62531 | 36954 ft | 387 kts | 242° |
| 2026-05-05 10:04 | 43.35009 | 5.55961 | 36944 ft | 387 kts | 241° |
| 2026-05-05 10:05 | 43.32567 | 5.49380 | 36939 ft | 388 kts | 241° |
| 2026-05-05 10:05 | 43.30111 | 5.42778 | 36949 ft | 388 kts | 242° |
| 2026-05-05 10:06 | 43.27740 | 5.36419 | 36958 ft | 388 kts | 241° |
| 2026-05-05 10:06 | 43.25692 | 5.30936 | 36983 ft | 388 kts | 241° |
| 2026-05-05 10:07 | 43.22943 | 5.23595 | 36963 ft | 388 kts | 241° |
| 2026-05-05 10:07 | 43.20871 | 5.18073 | 36957 ft | 388 kts | 241° |
| 2026-05-05 10:08 | 43.18417 | 5.11548 | 36953 ft | 387 kts | 241° |
| 2026-05-05 10:08 | 43.15947 | 5.04995 | 36952 ft | 386 kts | 241° |
| 2026-05-05 10:09 | 43.13529 | 4.98595 | 36949 ft | 386 kts | 241° |
| 2026-05-05 10:09 | 43.11078 | 4.92121 | 36950 ft | 385 kts | 241° |
| 2026-05-05 10:10 | 43.08606 | 4.85601 | 36948 ft | 384 kts | 241° |
| 2026-05-05 10:10 | 43.06012 | 4.79208 | 36945 ft | 383 kts | 234° |
| 2026-05-05 10:11 | 43.02477 | 4.73828 | 36954 ft | 383 kts | 223° |
| 2026-05-05 10:11 | 42.98473 | 4.69031 | 36952 ft | 383 kts | 223° |
| 2026-05-05 10:12 | 42.94481 | 4.64252 | 36949 ft | 383 kts | 223° |
| 2026-05-05 10:12 | 42.90476 | 4.59441 | 36945 ft | 383 kts | 223° |
| 2026-05-05 10:13 | 42.86476 | 4.54632 | 36959 ft | 384 kts | 223° |
| 2026-05-05 10:13 | 42.82458 | 4.49807 | 36957 ft | 384 kts | 223° |
| 2026-05-05 10:14 | 42.78433 | 4.44982 | 36953 ft | 385 kts | 223° |
| 2026-05-05 10:14 | 42.74422 | 4.40183 | 36953 ft | 385 kts | 223° |
| 2026-05-05 10:15 | 42.70391 | 4.35367 | 36946 ft | 385 kts | 223° |
| 2026-05-05 10:15 | 42.68380 | 4.32970 | 36645 ft | 381 kts | 223° |
| 2026-05-05 10:15 | 42.66408 | 4.30621 | 36396 ft | 373 kts | 223° |
| 2026-05-05 10:16 | 42.64466 | 4.28310 | 36132 ft | 368 kts | 223° |
| 2026-05-05 10:16 | 42.62580 | 4.26067 | 35881 ft | 363 kts | 223° |
| 2026-05-05 10:16 | 42.60688 | 4.23818 | 35635 ft | 359 kts | 223° |
| 2026-05-05 10:16 | 42.58812 | 4.21588 | 35387 ft | 356 kts | 223° |
| 2026-05-05 10:17 | 42.56954 | 4.19383 | 35169 ft | 353 kts | 223° |
| 2026-05-05 10:17 | 42.55119 | 4.17207 | 34873 ft | 347 kts | 223° |
| 2026-05-05 10:17 | 42.53305 | 4.15058 | 34498 ft | 344 kts | 223° |
| 2026-05-05 10:17 | 42.51509 | 4.12931 | 34157 ft | 341 kts | 223° |
| 2026-05-05 10:18 | 42.49749 | 4.10850 | 33787 ft | 338 kts | 223° |
| 2026-05-05 10:18 | 42.47981 | 4.08759 | 33394 ft | 335 kts | 223° |
| 2026-05-05 10:18 | 42.46230 | 4.06691 | 33042 ft | 331 kts | 223° |
| 2026-05-05 10:18 | 42.44495 | 4.04643 | 32679 ft | 328 kts | 223° |
| 2026-05-05 10:19 | 42.42784 | 4.02625 | 32333 ft | 325 kts | 223° |
| 2026-05-05 10:19 | 42.41086 | 4.00624 | 31984 ft | 322 kts | 224° |
| 2026-05-05 10:19 | 42.39477 | 3.98729 | 31657 ft | 319 kts | 224° |
| 2026-05-05 10:19 | 42.37831 | 3.96791 | 31318 ft | 316 kts | 224° |
| 2026-05-05 10:20 | 42.36177 | 3.94846 | 30984 ft | 313 kts | 224° |
| 2026-05-05 10:20 | 42.34535 | 3.92916 | 30648 ft | 310 kts | 224° |
| 2026-05-05 10:20 | 42.32910 | 3.91006 | 30293 ft | 308 kts | 224° |
| 2026-05-05 10:20 | 42.31299 | 3.89115 | 29971 ft | 305 kts | 224° |
| 2026-05-05 10:21 | 42.29719 | 3.87260 | 29607 ft | 303 kts | 224° |
| 2026-05-05 10:21 | 42.28120 | 3.85387 | 29270 ft | 299 kts | 224° |
| 2026-05-05 10:21 | 42.26578 | 3.83583 | 28930 ft | 295 kts | 224° |
| 2026-05-05 10:21 | 42.25032 | 3.81773 | 28596 ft | 292 kts | 224° |
| 2026-05-05 10:22 | 42.23508 | 3.79985 | 28287 ft | 289 kts | 224° |
| 2026-05-05 10:22 | 42.21995 | 3.78209 | 27929 ft | 286 kts | 224° |
| 2026-05-05 10:22 | 42.20502 | 3.76459 | 27595 ft | 284 kts | 224° |
| 2026-05-05 10:22 | 42.19015 | 3.74717 | 27259 ft | 281 kts | 224° |
| 2026-05-05 10:23 | 42.17545 | 3.72994 | 26935 ft | 279 kts | 224° |
| 2026-05-05 10:23 | 42.16083 | 3.71282 | 26607 ft | 277 kts | 224° |
| 2026-05-05 10:23 | 42.14627 | 3.69578 | 26287 ft | 276 kts | 224° |
| 2026-05-05 10:23 | 42.13193 | 3.67900 | 25955 ft | 277 kts | 224° |
| 2026-05-05 10:24 | 42.11739 | 3.66202 | 25635 ft | 276 kts | 224° |
| 2026-05-05 10:24 | 42.10274 | 3.64491 | 25328 ft | 283 kts | 224° |
| 2026-05-05 10:24 | 42.08756 | 3.62714 | 25000 ft | 292 kts | 225° |
| 2026-05-05 10:24 | 42.07287 | 3.60812 | 24699 ft | 293 kts | 228° |
| 2026-05-05 10:25 | 42.05871 | 3.58837 | 24402 ft | 292 kts | 229° |
| 2026-05-05 10:25 | 42.04472 | 3.56856 | 24109 ft | 290 kts | 229° |
| 2026-05-05 10:25 | 42.03089 | 3.54898 | 23818 ft | 288 kts | 229° |
| 2026-05-05 10:25 | 42.01713 | 3.52956 | 23528 ft | 286 kts | 228° |
| 2026-05-05 10:26 | 42.00338 | 3.51024 | 23211 ft | 285 kts | 228° |
| 2026-05-05 10:26 | 41.98992 | 3.49137 | 22897 ft | 283 kts | 228° |
| 2026-05-05 10:26 | 41.97634 | 3.47239 | 22603 ft | 281 kts | 228° |
| 2026-05-05 10:26 | 41.96283 | 3.45354 | 22321 ft | 279 kts | 228° |
| 2026-05-05 10:27 | 41.94936 | 3.43477 | 22039 ft | 278 kts | 228° |
| 2026-05-05 10:27 | 41.93589 | 3.41602 | 21735 ft | 277 kts | 228° |
| 2026-05-05 10:27 | 41.92270 | 3.39768 | 21492 ft | 276 kts | 228° |
| 2026-05-05 10:27 | 41.90932 | 3.37909 | 21216 ft | 276 kts | 228° |
| 2026-05-05 10:28 | 41.89595 | 3.36053 | 20947 ft | 277 kts | 228° |
| 2026-05-05 10:28 | 41.88254 | 3.34192 | 20672 ft | 278 kts | 228° |
| 2026-05-05 10:28 | 41.86914 | 3.32334 | 20405 ft | 279 kts | 227° |
| 2026-05-05 10:28 | 41.85555 | 3.30452 | 20120 ft | 280 kts | 227° |
| 2026-05-05 10:29 | 41.84194 | 3.28567 | 19839 ft | 282 kts | 227° |
| 2026-05-05 10:29 | 41.82825 | 3.26673 | 19563 ft | 283 kts | 227° |
| 2026-05-05 10:29 | 41.81453 | 3.24776 | 19282 ft | 284 kts | 227° |
| 2026-05-05 10:29 | 41.80091 | 3.22895 | 19004 ft | 285 kts | 227° |
| 2026-05-05 10:30 | 41.78706 | 3.20983 | 18719 ft | 285 kts | 227° |
| 2026-05-05 10:30 | 41.77327 | 3.19079 | 18429 ft | 284 kts | 227° |
| 2026-05-05 10:30 | 41.75953 | 3.17185 | 18136 ft | 282 kts | 227° |
| 2026-05-05 10:30 | 41.74595 | 3.15315 | 17821 ft | 279 kts | 227° |
| 2026-05-05 10:31 | 41.73242 | 3.13450 | 17515 ft | 276 kts | 227° |
| 2026-05-05 10:31 | 41.71910 | 3.11617 | 17240 ft | 274 kts | 227° |
| 2026-05-05 10:31 | 41.70602 | 3.09816 | 16970 ft | 272 kts | 227° |
| 2026-05-05 10:31 | 41.69285 | 3.08005 | 16702 ft | 271 kts | 226° |
| 2026-05-05 10:32 | 41.67972 | 3.06202 | 16434 ft | 270 kts | 226° |
| 2026-05-05 10:32 | 41.66661 | 3.04403 | 16184 ft | 269 kts | 226° |
| 2026-05-05 10:32 | 41.65391 | 3.02563 | 15876 ft | 270 kts | 233° |
| 2026-05-05 10:32 | 41.64401 | 3.00397 | 15500 ft | 275 kts | 239° |
| 2026-05-05 10:33 | 41.63506 | 2.98223 | 15130 ft | 279 kts | 240° |
| 2026-05-05 10:33 | 41.62565 | 2.95929 | 14729 ft | 282 kts | 239° |
| 2026-05-05 10:33 | 41.61619 | 2.93629 | 14329 ft | 283 kts | 239° |
| 2026-05-05 10:33 | 41.60676 | 2.91345 | 13921 ft | 285 kts | 239° |
| 2026-05-05 10:34 | 41.59712 | 2.89022 | 13506 ft | 286 kts | 239° |
| 2026-05-05 10:34 | 41.58738 | 2.86683 | 13049 ft | 288 kts | 239° |
| 2026-05-05 10:34 | 41.57759 | 2.84337 | 12549 ft | 291 kts | 239° |
| 2026-05-05 10:34 | 41.56766 | 2.81963 | 12063 ft | 293 kts | 239° |
| 2026-05-05 10:35 | 41.55770 | 2.79582 | 11583 ft | 293 kts | 239° |
| 2026-05-05 10:35 | 41.54785 | 2.77231 | 11106 ft | 287 kts | 239° |
| 2026-05-05 10:35 | 41.53821 | 2.74931 | 10624 ft | 281 kts | 240° |
| 2026-05-05 10:35 | 41.52873 | 2.72673 | 10150 ft | 276 kts | 239° |
| 2026-05-05 10:36 | 41.52001 | 2.70408 | 9719 ft | 271 kts | 249° |
| 2026-05-05 10:36 | 41.51535 | 2.67998 | 9331 ft | 266 kts | 256° |
| 2026-05-05 10:36 | 41.51178 | 2.65608 | 8944 ft | 260 kts | 257° |
| 2026-05-05 10:36 | 41.50848 | 2.63313 | 8588 ft | 248 kts | 257° |
| 2026-05-05 10:37 | 41.50536 | 2.61095 | 8197 ft | 239 kts | 257° |
| 2026-05-05 10:37 | 41.50237 | 2.58949 | 7791 ft | 231 kts | 257° |
| 2026-05-05 10:37 | 41.49949 | 2.56878 | 7415 ft | 224 kts | 257° |
| 2026-05-05 10:37 | 41.49669 | 2.54859 | 7040 ft | 218 kts | 257° |
| 2026-05-05 10:38 | 41.49397 | 2.52885 | 6676 ft | 214 kts | 257° |
| 2026-05-05 10:38 | 41.49130 | 2.50955 | 6304 ft | 210 kts | 256° |
| 2026-05-05 10:38 | 41.48588 | 2.49190 | 5911 ft | 205 kts | 232° |
| 2026-05-05 10:38 | 41.47675 | 2.47762 | 5552 ft | 205 kts | 227° |
| 2026-05-05 10:39 | 41.46711 | 2.46366 | 5234 ft | 204 kts | 227° |
| 2026-05-05 10:39 | 41.45743 | 2.44981 | 4922 ft | 204 kts | 227° |
| 2026-05-05 10:39 | 41.44768 | 2.43605 | 4620 ft | 204 kts | 227° |
| 2026-05-05 10:39 | 41.43804 | 2.42259 | 4366 ft | 197 kts | 227° |
| 2026-05-05 10:40 | 41.42874 | 2.40970 | 4103 ft | 193 kts | 227° |
| 2026-05-05 10:40 | 41.41949 | 2.39694 | 3878 ft | 190 kts | 227° |
| 2026-05-05 10:40 | 41.41022 | 2.38424 | 3627 ft | 193 kts | 227° |
| 2026-05-05 10:40 | 41.40085 | 2.37148 | 3343 ft | 191 kts | 227° |
| 2026-05-05 10:41 | 41.39327 | 2.35739 | 3088 ft | 185 kts | 243° |
| 2026-05-05 10:41 | 41.38765 | 2.34221 | 2832 ft | 181 kts | 246° |
| 2026-05-05 10:41 | 41.38235 | 2.32699 | 2595 ft | 180 kts | 248° |
| 2026-05-05 10:41 | 41.37725 | 2.31215 | 2375 ft | 174 kts | 247° |
| 2026-05-05 10:42 | 41.36742 | 2.28355 | 2311 ft | 168 kts | 247° |
| 2026-05-05 10:42 | 41.36258 | 2.26934 | 2336 ft | 169 kts | 248° |
| 2026-05-05 10:42 | 41.35760 | 2.25508 | 2311 ft | 170 kts | 245° |
| 2026-05-05 10:43 | 41.35241 | 2.24089 | 2250 ft | 172 kts | 248° |
| 2026-05-05 10:43 | 41.34760 | 2.22610 | 2049 ft | 175 kts | 248° |
| 2026-05-05 10:43 | 41.34263 | 2.21143 | 1827 ft | 172 kts | 246° |
| 2026-05-05 10:43 | 41.33779 | 2.19734 | 1603 ft | 161 kts | 245° |
| 2026-05-05 10:44 | 41.33317 | 2.18407 | 1377 ft | 157 kts | 245° |
| 2026-05-05 10:44 | 41.32897 | 2.17157 | 1239 ft | 147 kts | 246° |
| 2026-05-05 10:44 | 41.32489 | 2.15946 | 1077 ft | 140 kts | 246° |
| 2026-05-05 10:44 | 41.32090 | 2.14773 | 846 ft | 139 kts | 247° |
| 2026-05-05 10:45 | 41.31690 | 2.13593 | 646 ft | 142 kts | 246° |
| 2026-05-05 10:45 | 41.31255 | 2.12383 | 417 ft | 147 kts | 246° |
| 2026-05-05 10:45 | 41.30824 | 2.11125 | 226 ft | 150 kts | 247° |
| 2026-05-05 10:45 | 41.30395 | 2.09854 | 30 ft | 151 kts | 246° |
| 2026-05-05 10:46 | 41.29995 | 2.08685 | 22 ft | 123 kts | 245° |
| 2026-05-05 10:46 | 41.29690 | 2.07787 | 15 ft | 89 kts | 245° |
| 2026-05-05 10:46 | 41.29501 | 2.07245 | 17 ft | 35 kts | 245° |
| 2026-05-05 10:46 | 41.29523 | 2.07132 | 14 ft | 13 kts | 343° |
| 2026-05-05 10:47 | 41.29584 | 2.07096 | 14 ft | 8 kts | 335° |
| 2026-05-05 10:47 | 41.29602 | 2.07085 | 15 ft | 0 kts | 336° |
| 2026-05-05 10:48 | 41.29613 | 2.07078 | 14 ft | 4 kts | 336° |
| 2026-05-05 10:48 | 41.29652 | 2.07056 | 14 ft | 8 kts | 342° |
| 2026-05-05 10:48 | 41.29700 | 2.07099 | 15 ft | 10 kts | 69° |
| 2026-05-05 10:49 | 41.29734 | 2.07205 | 15 ft | 14 kts | 66° |
| 2026-05-05 10:49 | 41.29781 | 2.07341 | 15 ft | 18 kts | 65° |
| 2026-05-05 10:49 | 41.29835 | 2.07497 | 15 ft | 18 kts | 66° |
| 2026-05-05 10:49 | 41.29888 | 2.07651 | 15 ft | 18 kts | 65° |
| 2026-05-05 10:50 | 41.29940 | 2.07801 | 15 ft | 18 kts | 65° |
| 2026-05-05 10:50 | 41.29989 | 2.07944 | 16 ft | 17 kts | 65° |
| 2026-05-05 10:50 | 41.30025 | 2.08052 | 20 ft | 8 kts | 65° |
| 2026-05-05 10:50 | 41.30050 | 2.08123 | 18 ft | 10 kts | 65° |
| 2026-05-05 10:51 | 41.30081 | 2.08205 | 18 ft | 10 kts | 49° |
| 2026-05-05 10:51 | 41.30141 | 2.08204 | 19 ft | 2 kts | 334° |
| 2026-05-05 10:51 | 41.30145 | 2.08201 | 18 ft | 0 kts | 334° |
| 2026-05-05 10:53 | 41.30147 | 2.08200 | 18 ft | 2 kts | 334° |
| 2026-05-05 10:53 | 41.30163 | 2.08190 | 17 ft | 5 kts | 335° |
| 2026-05-05 10:53 | 41.30205 | 2.08187 | 18 ft | 7 kts | 28° |
| 2026-05-05 10:53 | 41.30236 | 2.08215 | 18 ft | 4 kts | 18° |
| 2026-05-05 10:54 | 41.30263 | 2.08225 | 19 ft | 4 kts | 15° |
| 2026-05-05 10:54 | 41.30289 | 2.08233 | 21 ft | 4 kts | 13° |
| 2026-05-05 10:54 | 41.30307 | 2.08239 | 20 ft | 1 kts | 13° |
| 2026-05-05 10:54 | 41.30310 | 2.08240 | 20 ft | 0 kts | 13° |